Time;durP1;ratioP1;P1;durP2;ratioP2;P2;SDS_P1;SDS_P2;PMS_P1;PMS_P2;Temp;Humidity;BMP_temperature;BMP_pressure;BME280_temperature;BME280_humidity;BME280_pressure;Samples;Min_cycle;Max_cycle;Signal;HPM_P1;HPM_P2
2023/01/26 01:15:51;;;;;;;38.70;19.13;;;;;;;-0.04;100.00;99203.25;5762212;23;20918;-55
2023/01/26 01:18:18;;;;;;;32.70;16.13;;;;;;;-0.05;100.00;99204.16;4927357;29;20325;-56
2023/01/26 01:20:46;;;;;;;34.00;17.73;;;;;;;-0.06;100.00;99189.66;4922087;29;20239;-55
2023/01/26 01:23:13;;;;;;;37.23;18.87;;;;;;;-0.04;100.00;99193.81;4919957;29;20254;-54
2023/01/26 01:25:39;;;;;;;40.03;19.43;;;;;;;-0.04;100.00;99198.13;4922485;29;20302;-55
2023/01/26 01:28:06;;;;;;;38.10;19.03;;;;;;;-0.04;100.00;99188.69;4928337;29;20243;-52
2023/01/26 01:30:32;;;;;;;36.97;18.17;;;;;;;-0.03;100.00;99187.78;4916274;29;20240;-55
2023/01/26 01:33:00;;;;;;;34.40;18.57;;;;;;;-0.03;100.00;99190.34;4912061;29;20220;-56
2023/01/26 01:35:28;;;;;;;37.47;18.30;;;;;;;-0.05;100.00;99192.16;4916691;29;20235;-53
2023/01/26 01:37:54;;;;;;;37.23;19.00;;;;;;;-0.04;100.00;99175.03;4915532;29;20283;-54
2023/01/26 01:40:21;;;;;;;33.97;17.80;;;;;;;-0.06;100.00;99181.97;4917452;29;20239;-53
2023/01/26 01:42:48;;;;;;;35.03;18.57;;;;;;;-0.08;100.00;99179.44;4915337;29;20706;-53
2023/01/26 01:45:39;;;;;;;36.67;18.40;;;;;;;-0.08;100.00;99174.31;4915994;29;20317;-53
2023/01/26 01:48:17;;;;;;;32.73;17.27;;;;;;;-0.08;100.00;99176.88;4916270;29;20600;-54
2023/01/26 01:50:44;;;;;;;32.57;17.27;;;;;;;-0.04;100.00;99177.59;4917512;29;20234;-54
2023/01/26 01:53:17;;;;;;;39.23;18.50;;;;;;;-0.08;100.00;99176.88;4913649;29;20259;-56
2023/01/26 01:55:44;;;;;;;42.53;18.60;;;;;;;-0.10;100.00;99177.88;4917547;29;20610;-54
2023/01/26 01:58:13;;;;;;;34.33;18.83;;;;;;;-0.07;100.00;99180.31;4916814;29;20254;-56
2023/01/26 02:00:39;;;;;;;38.63;18.13;;;;;;;-0.06;100.00;99181.97;4914516;29;20613;-55
2023/01/26 02:03:14;;;;;;;37.57;18.80;;;;;;;-0.13;100.00;99188.28;4913151;29;20296;-56
2023/01/26 02:05:48;;;;;;;36.97;20.23;;;;;;;-0.10;100.00;99183.81;4918858;29;20230;-55
2023/01/26 02:08:18;;;;;;;43.30;19.50;;;;;;;-0.18;100.00;99178.19;4913973;29;20292;-52
2023/01/26 02:10:48;;;;;;;41.10;19.33;;;;;;;-0.23;100.00;99175.00;4917350;29;20247;-56
2023/01/26 02:13:16;;;;;;;41.23;21.27;;;;;;;-0.19;100.00;99174.81;4926028;29;20240;-53
2023/01/26 02:15:43;;;;;;;40.93;20.13;;;;;;;-0.24;100.00;99174.19;4925617;29;20226;-54
2023/01/26 02:18:11;;;;;;;48.42;27.52;;;;;;;-0.18;100.00;99176.50;4909339;29;20481;-55
2023/01/26 02:20:45;;;;;;;45.60;22.27;;;;;;;-0.19;100.00;99167.13;4915057;29;20312;-55
2023/01/26 02:23:22;;;;;;;45.23;21.97;;;;;;;-0.23;100.00;99169.88;4910779;29;20266;-56
2023/01/26 02:26:05;;;;;;;50.20;22.83;;;;;;;-0.23;100.00;99164.75;4908347;29;20239;-55
2023/01/26 02:28:32;;;;;;;42.30;21.63;;;;;;;-0.21;100.00;99168.94;4913454;29;20245;-52
2023/01/26 02:30:59;;;;;;;48.83;21.50;;;;;;;-0.19;100.00;99159.44;4907880;29;20423;-56
2023/01/26 02:33:27;;;;;;;44.10;21.03;;;;;;;-0.18;100.00;99160.25;4911831;29;20227;-54
2023/01/26 02:36:01;;;;;;;44.20;20.97;;;;;;;-0.20;100.00;99157.75;4911610;29;20708;-55
2023/01/26 02:38:33;;;;;;;44.37;20.93;;;;;;;-0.17;100.00;99160.19;4915482;29;20230;-57
2023/01/26 02:41:05;;;;;;;40.33;19.73;;;;;;;-0.20;100.00;99155.19;4922134;29;20245;-53
2023/01/26 02:43:32;;;;;;;32.93;18.03;;;;;;;-0.18;100.00;99152.53;4911955;29;20707;-55
2023/01/26 02:45:58;;;;;;;38.03;17.97;;;;;;;-0.16;100.00;99163.56;4914553;29;20336;-54
2023/01/26 02:51:10;;;;;;;40.60;18.50;;;;;;;-0.23;100.00;99160.47;4909282;29;20235;-55
2023/01/26 02:53:37;;;;;;;42.03;18.97;;;;;;;-0.26;100.00;99157.19;4922701;29;20240;-53
2023/01/26 02:56:04;;;;;;;37.10;18.30;;;;;;;-0.24;100.00;99160.53;4909842;29;20230;-55
2023/01/26 02:58:31;;;;;;;35.63;17.63;;;;;;;-0.25;100.00;99153.72;4904003;28;20305;-55
2023/01/26 03:00:58;;;;;;;34.00;16.87;;;;;;;-0.34;100.00;99163.50;4909698;29;20708;-57
2023/01/26 03:03:40;;;;;;;30.90;15.37;;;;;;;-0.34;100.00;99158.38;4914444;29;20234;-56
2023/01/26 03:06:09;;;;;;;33.67;16.67;;;;;;;-0.37;100.00;99163.63;4909060;29;22343;-56
2023/01/26 03:08:35;;;;;;;34.30;17.67;;;;;;;-0.38;100.00;99158.56;4912997;29;20793;-53
2023/01/26 03:11:02;;;;;;;36.17;18.70;;;;;;;-0.39;100.00;99156.91;4908463;29;20289;-54
2023/01/26 03:13:30;;;;;;;36.63;18.33;;;;;;;-0.39;100.00;99152.59;4914731;29;20258;-54
2023/01/26 03:16:05;;;;;;;37.53;18.90;;;;;;;-0.38;100.00;99145.75;4906892;29;20583;-57
2023/01/26 03:29:40;;;;;;;35.80;17.20;;;;;;;-0.39;100.00;99146.66;4907932;29;20610;-61
2023/01/26 03:32:07;;;;;;;37.23;18.27;;;;;;;-0.45;100.00;99146.03;4911452;29;20238;-56
2023/01/26 03:34:34;;;;;;;41.87;18.97;;;;;;;-0.52;100.00;99144.63;4916153;29;20250;-56
2023/01/26 03:37:00;;;;;;;40.33;19.13;;;;;;;-0.45;100.00;99137.47;4910730;29;21204;-54
2023/01/26 03:56:17;;;;;;;42.83;21.03;;;;;;;-0.39;100.00;99131.25;4912678;29;20830;-54
2023/01/26 03:58:45;;;;;;;45.90;21.90;;;;;;;-0.41;100.00;99126.19;4928385;29;20572;-55
2023/01/26 04:01:18;;;;;;;43.53;21.10;;;;;;;-0.35;100.00;99128.47;4910538;29;20237;-53
2023/01/26 04:09:18;;;;;;;45.03;22.20;;;;;;;-0.37;100.00;99124.34;4913179;29;20590;-54
2023/01/26 04:11:45;;;;;;;47.63;22.17;;;;;;;-0.34;100.00;99119.88;4916593;29;20230;-56
2023/01/26 04:22:27;;;;;;;40.17;20.13;;;;;;;-0.34;100.00;99121.63;4924073;29;20234;-55
2023/01/26 04:24:53;;;;;;;40.47;21.00;;;;;;;-0.40;100.00;99114.22;4911726;29;20246;-54
2023/01/26 04:27:20;;;;;;;43.27;19.80;;;;;;;-0.40;100.00;99114.22;4911773;29;20234;-57
2023/01/26 04:29:47;;;;;;;45.27;22.03;;;;;;;-0.41;100.00;99108.22;4913142;29;20254;-56
2023/01/26 04:32:15;;;;;;;43.57;20.80;;;;;;;-0.41;100.00;99107.41;5099785;23;20356;-54
2023/01/26 04:34:43;;;;;;;45.20;21.37;;;;;;;-0.43;100.00;99101.53;4896831;29;20250;-56
2023/01/26 04:37:18;;;;;;;44.87;19.17;;;;;;;-0.45;100.00;99099.84;4897938;29;20242;-53
2023/01/26 04:39:47;;;;;;;43.73;21.63;;;;;;;-0.46;100.00;99090.50;4894537;29;20256;-55
2023/01/26 04:42:14;;;;;;;46.13;22.43;;;;;;;-0.43;100.00;99099.78;4896333;29;20581;-55
2023/01/26 04:44:41;;;;;;;50.97;23.20;;;;;;;-0.47;100.00;99099.09;4905588;29;20246;-56
2023/01/26 04:47:08;;;;;;;45.37;21.87;;;;;;;-0.41;100.00;99092.03;4896047;29;20229;-57
2023/01/26 04:49:36;;;;;;;48.33;22.60;;;;;;;-0.43;100.00;99099.78;4899301;29;20238;-55
2023/01/26 04:52:03;;;;;;;53.63;22.93;;;;;;;-0.42;100.00;99098.06;4910423;29;20241;-54
2023/01/26 04:54:31;;;;;;;57.40;22.80;;;;;;;-0.41;100.00;99094.59;4899170;29;20233;-56
2023/01/26 04:56:58;;;;;;;50.87;22.40;;;;;;;-0.42;100.00;99091.19;4891931;29;20234;-54
2023/01/26 04:59:25;;;;;;;54.47;22.60;;;;;;;-0.42;100.00;99090.38;4910655;29;20317;-56
2023/01/26 05:01:56;;;;;;;52.23;21.63;;;;;;;-0.40;100.00;99086.00;4898304;29;20238;-56
2023/01/26 05:04:22;;;;;;;47.70;21.30;;;;;;;-0.46;100.00;99084.53;4897050;29;20261;-55
2023/01/26 05:06:51;;;;;;;50.53;21.80;;;;;;;-0.47;100.00;99082.88;4895059;29;20228;-56
2023/01/26 05:09:17;;;;;;;54.50;22.63;;;;;;;-0.46;100.00;99084.53;4896356;29;20286;-56
2023/01/26 05:11:45;;;;;;;48.93;22.23;;;;;;;-0.46;100.00;99092.22;4911266;29;20290;-56
2023/01/26 05:14:30;;;;;;;45.27;21.40;;;;;;;-0.42;100.00;99090.38;4892065;29;20584;-56
2023/01/26 05:17:01;;;;;;;52.47;23.03;;;;;;;-0.46;100.00;99097.34;4895901;29;20262;-56
2023/01/26 05:19:45;;;;;;;66.43;33.53;;;;;;;-0.45;100.00;99094.72;4911192;29;20292;-57
2023/01/26 05:22:32;;;;;;;46.47;20.53;;;;;;;-0.51;100.00;99087.31;4893084;29;20924;-54
2023/01/26 05:25:17;;;;;;;42.83;20.10;;;;;;;-0.46;100.00;99081.97;4897471;29;20597;-54
2023/01/26 05:27:56;;;;;;;48.17;22.23;;;;;;;-0.46;100.00;99085.38;4897988;29;20782;-55
2023/01/26 05:30:24;;;;;;;41.87;21.17;;;;;;;-0.43;100.00;99084.38;4909920;29;20242;-54
2023/01/26 05:32:51;;;;;;;45.37;21.40;;;;;;;-0.47;100.00;99082.88;4895071;29;20262;-53
2023/01/26 05:35:17;;;;;;;43.80;19.63;;;;;;;-0.47;100.00;99081.16;4904253;29;20258;-56
2023/01/26 05:37:46;;;;;;;39.10;18.80;;;;;;;-0.49;100.00;99082.09;4905189;29;20326;-53
2023/01/26 05:40:14;;;;;;;43.97;18.57;;;;;;;-0.49;100.00;99079.53;4906314;29;20238;-54
2023/01/26 05:42:43;;;;;;;35.03;17.73;;;;;;;-0.46;100.00;99089.66;4907741;29;20240;-56
2023/01/26 05:45:23;;;;;;;47.23;21.37;;;;;;;-0.49;100.00;99088.06;4896918;29;20723;-54
2023/01/26 05:47:52;;;;;;;47.87;21.50;;;;;;;-0.45;100.00;99081.91;4899658;29;20773;-56
2023/01/26 05:50:19;;;;;;;51.17;22.70;;;;;;;-0.45;100.00;99075.94;4897624;29;20234;-55
2023/01/26 05:53:07;;;;;;;48.53;22.80;;;;;;;-0.41;100.00;99071.50;4897436;29;20247;-54
2023/01/26 05:55:36;;;;;;;44.63;22.10;;;;;;;-0.43;100.00;99074.13;4900761;29;20294;-54
2023/01/26 05:58:02;;;;;;;47.27;21.43;;;;;;;-0.41;100.00;99069.75;4895037;29;20593;-55
2023/01/26 06:00:29;;;;;;;49.83;23.27;;;;;;;-0.40;100.00;99065.47;4899099;29;20257;-54
2023/01/26 06:03:04;;;;;;;48.77;22.83;;;;;;;-0.35;100.00;99072.03;4896339;29;20231;-55
2023/01/26 06:05:31;;;;;;;47.80;22.53;;;;;;;-0.37;100.00;99073.03;4915161;29;20246;-57
2023/01/26 06:07:58;;;;;;;47.67;22.93;;;;;;;-0.41;100.00;99067.19;4895482;29;20738;-53
2023/01/26 06:10:30;;;;;;;52.57;23.07;;;;;;;-0.40;100.00;99073.16;4915536;29;20588;-55
2023/01/26 06:13:17;;;;;;;49.00;23.87;;;;;;;-0.39;100.00;99069.72;4898611;29;20258;-55
2023/01/26 06:15:52;;;;;;;50.97;22.00;;;;;;;-0.36;100.00;99077.25;4902444;29;20252;-57
2023/01/26 06:18:23;;;;;;;53.17;25.13;;;;;;;-0.40;100.00;99076.56;4904366;29;20299;-55
2023/01/26 06:20:53;;;;;;;58.73;26.33;;;;;;;-0.38;100.00;99073.94;4901173;29;20654;-55
2023/01/26 06:23:20;;;;;;;52.13;24.07;;;;;;;-0.37;100.00;99073.03;4898195;29;20737;-56
2023/01/26 06:25:50;;;;;;;54.00;23.87;;;;;;;-0.37;100.00;99078.16;4904058;29;20311;-55
2023/01/26 06:28:18;;;;;;;51.60;25.40;;;;;;;-0.37;100.00;99080.72;4913771;29;20240;-56
2023/01/26 06:30:45;;;;;;;48.23;22.23;;;;;;;-0.40;100.00;99084.25;4897156;29;20262;-57
2023/01/26 06:33:12;;;;;;;49.10;21.20;;;;;;;-0.40;100.00;99086.81;4895998;29;20262;-56
2023/01/26 06:35:39;;;;;;;50.47;21.47;;;;;;;-0.49;100.00;99092.34;4906449;29;20236;-53
2023/01/26 06:38:10;;;;;;;45.20;20.67;;;;;;;-0.56;100.00;99091.00;4894464;29;20330;-57
2023/01/26 06:40:37;;;;;;;57.50;26.90;;;;;;;-0.51;100.00;99083.91;4901403;29;20324;-56
2023/01/26 06:43:05;;;;;;;48.43;22.63;;;;;;;-0.53;100.00;99083.16;4901171;29;20230;-54
2023/01/26 06:45:32;;;;;;;52.07;24.70;;;;;;;-0.53;100.00;99080.59;4907427;29;20231;-56
2023/01/26 06:47:59;;;;;;;51.07;22.73;;;;;;;-0.58;100.00;99079.97;4901710;29;20737;-55
2023/01/26 06:50:32;;;;;;;59.10;27.43;;;;;;;-0.62;100.00;99077.53;4900286;29;20234;-55
2023/01/26 06:53:00;;;;;;;63.40;31.70;;;;;;;-0.56;100.00;99079.00;4900866;29;20588;-56
2023/01/26 06:55:40;;;;;;;53.17;24.00;;;;;;;-0.54;100.00;99079.75;4912721;29;20322;-56
2023/01/26 06:58:27;;;;;;;56.53;25.37;;;;;;;-0.54;100.00;99074.63;4893527;29;20239;-54
2023/01/26 07:01:16;;;;;;;54.37;25.80;;;;;;;-0.50;100.00;99075.31;4895176;29;20247;-56
2023/01/26 07:03:43;;;;;;;68.43;33.22;;;;;;;-0.49;100.00;99080.38;4895133;29;20508;-54
2023/01/26 07:06:11;;;;;;;52.10;25.47;;;;;;;-0.50;100.00;99075.31;4893733;29;20299;-55
2023/01/26 07:08:37;;;;;;;51.90;24.87;;;;;;;-0.50;100.00;99078.72;4898109;29;20624;-54
2023/01/26 07:11:04;;;;;;;56.63;26.93;;;;;;;-0.46;100.00;99079.41;4895616;29;20255;-54
2023/01/26 07:13:32;;;;;;;67.10;31.53;;;;;;;-0.39;100.00;99079.97;4896003;29;20299;-53
2023/01/26 07:16:02;;;;;;;60.30;29.73;;;;;;;-0.34;100.00;99086.53;4893692;29;20234;-56
2023/01/26 07:18:29;;;;;;;55.53;25.70;;;;;;;-0.33;100.00;99087.38;4898690;29;20247;-53
2023/01/26 07:21:00;;;;;;;52.47;24.43;;;;;;;-0.33;100.00;99087.38;4895037;29;20274;-57
2023/01/26 07:23:26;;;;;;;49.17;23.70;;;;;;;-0.28;100.00;99088.00;4896417;29;20589;-57
2023/01/26 07:25:53;;;;;;;54.20;25.30;;;;;;;-0.27;100.00;99094.81;4899525;29;20235;-55
2023/01/26 07:28:20;;;;;;;53.30;22.93;;;;;;;-0.24;100.00;99093.81;4898327;29;20240;-56
2023/01/26 07:30:48;;;;;;;50.57;26.03;;;;;;;-0.22;100.00;99099.69;4896183;29;20239;-55
2023/01/26 07:33:15;;;;;;;52.07;24.33;;;;;;;-0.22;100.00;99097.13;4895050;29;20253;-57
2023/01/26 07:35:41;;;;;;;42.23;21.47;;;;;;;-0.26;100.00;99091.34;4897855;29;20235;-55
2023/01/26 07:38:08;;;;;;;50.67;21.53;;;;;;;-0.23;100.00;99093.75;4894535;29;20364;-56
2023/01/26 07:40:34;;;;;;;45.43;19.97;;;;;;;-0.22;100.00;99095.41;4898318;29;20227;-56
2023/01/26 07:43:01;;;;;;;42.43;19.63;;;;;;;-0.20;100.00;99100.47;4894983;29;20261;-54
2023/01/26 07:45:51;;;;;;;41.13;17.40;;;;;;;-0.27;100.00;99093.94;4901831;29;20318;-52
2023/01/26 07:48:18;;;;;;;38.03;18.60;;;;;;;-0.24;100.00;99097.22;4891327;29;20268;-54
2023/01/26 07:50:46;;;;;;;37.30;17.50;;;;;;;-0.18;100.00;99101.22;4896722;29;20243;-53
2023/01/26 07:53:14;;;;;;;39.07;17.47;;;;;;;-0.19;100.00;99102.97;4893927;29;20266;-56
2023/01/26 07:55:42;;;;;;;32.03;16.20;;;;;;;-0.17;100.00;99103.75;4894947;29;20255;-56
2023/01/26 07:58:09;;;;;;;31.90;15.33;;;;;;;-0.22;100.00;99097.13;4894259;29;20279;-57
2023/01/26 08:00:35;;;;;;;28.33;13.30;;;;;;;-0.23;100.00;99098.88;4896010;29;20247;-55
2023/01/26 08:03:03;;;;;;;24.80;12.63;;;;;;;-0.29;100.00;99096.59;4892957;29;20240;-55
2023/01/26 08:05:31;;;;;;;24.43;12.13;;;;;;;-0.26;100.00;99090.47;4898863;29;20235;-56
2023/01/26 08:07:58;;;;;;;23.00;10.77;;;;;;;-0.23;100.00;99087.78;4896884;29;20376;-53
2023/01/26 08:10:25;;;;;;;26.13;11.37;;;;;;;-0.24;100.00;99096.38;4900099;29;20235;-56
2023/01/26 08:12:51;;;;;;;29.77;15.67;;;;;;;-0.32;100.00;99094.19;4901492;29;20253;-56
2023/01/26 08:15:18;;;;;;;22.57;11.53;;;;;;;-0.32;100.00;99099.31;4896862;29;20294;-58
2023/01/26 08:17:45;;;;;;;23.30;13.48;;;;;;;-0.21;100.00;99102.22;4897740;29;20464;-54
2023/01/26 08:20:13;;;;;;;22.27;11.40;;;;;;;-0.33;100.00;99105.34;4898575;29;20293;-55
2023/01/26 08:22:39;;;;;;;27.53;13.67;;;;;;;-0.31;100.00;99108.66;4898795;29;20569;-55
2023/01/26 08:25:07;;;;;;;22.57;10.83;;;;;;;-0.33;100.00;99105.34;4895673;29;20235;-54
2023/01/26 08:27:33;;;;;;;26.43;12.27;;;;;;;-0.31;100.00;99117.19;4899456;29;20246;-54
2023/01/26 08:30:00;;;;;;;24.70;12.00;;;;;;;-0.33;100.00;99113.03;4893510;29;20246;-54
2023/01/26 08:32:28;;;;;;;26.23;12.33;;;;;;;-0.41;100.00;99115.94;4897671;29;20302;-54
2023/01/26 08:34:55;;;;;;;22.37;11.97;;;;;;;-0.47;100.00;99116.19;4898476;29;20235;-54
2023/01/26 08:37:23;;;;;;;24.50;10.70;;;;;;;-0.35;100.00;99110.53;4900925;29;20584;-53
2023/01/26 08:39:50;;;;;;;25.10;11.17;;;;;;;-0.41;100.00;99115.94;4893764;29;20352;-54
2023/01/26 08:42:16;;;;;;;29.13;10.70;;;;;;;-0.45;100.00;99120.38;4901232;29;20670;-53
2023/01/26 08:44:43;;;;;;;24.77;10.83;;;;;;;-0.51;100.00;99122.38;4900263;29;20243;-56
2023/01/26 08:47:10;;;;;;;25.90;12.68;;;;;;;-0.44;100.00;99123.75;4889735;29;20968;-55
2023/01/26 08:49:36;;;;;;;23.37;11.33;;;;;;;-0.46;100.00;99118.72;4897217;29;20261;-53
2023/01/26 08:52:03;;;;;;;26.03;12.77;;;;;;;-0.38;100.00;99115.78;4894852;29;20639;-53
2023/01/26 08:54:31;;;;;;;22.27;10.83;;;;;;;-0.32;100.00;99114.69;4897553;29;20300;-57
2023/01/26 08:56:58;;;;;;;24.27;12.10;;;;;;;-0.29;100.00;99119.69;4892236;29;20643;-54
2023/01/26 08:59:24;;;;;;;30.67;12.87;;;;;;;-0.24;100.00;99120.31;4897334;29;20687;-54
2023/01/26 09:01:51;;;;;;;45.90;24.87;;;;;;;-0.20;100.00;99116.72;4895370;29;20640;-56
2023/01/26 09:04:18;;;;;;;52.27;33.73;;;;;;;-0.16;100.00;99114.81;4898830;29;20239;-56
2023/01/26 09:06:44;;;;;;;23.77;11.30;;;;;;;-0.19;100.00;99108.09;4898078;29;20223;-54
2023/01/26 09:09:13;;;;;;;20.13;9.73;;;;;;;-0.20;99.76;99113.28;4896963;29;20334;-53
2023/01/26 09:11:41;;;;;;;23.93;10.33;;;;;;;-0.26;99.16;99111.84;4900167;29;20256;-54
2023/01/26 09:14:07;;;;;;;25.60;13.87;;;;;;;-0.27;98.98;99115.31;4896001;29;20242;-54
2023/01/26 09:16:34;;;;;;;24.77;11.17;;;;;;;-0.23;99.64;99116.84;4902015;29;20239;-54
2023/01/26 09:19:00;;;;;;;42.70;27.77;;;;;;;-0.26;99.58;99114.41;4897570;29;20660;-56
2023/01/26 09:21:27;;;;;;;24.70;14.47;;;;;;;-0.14;99.03;99114.75;4901101;29;20242;-53
2023/01/26 09:23:55;;;;;;;22.27;10.93;;;;;;;-0.19;98.22;99117.53;4902689;29;20235;-53
2023/01/26 09:26:22;;;;;;;21.03;10.07;;;;;;;-0.12;98.53;99118.91;4901761;29;20723;-54
2023/01/26 09:28:51;;;;;;;21.97;10.60;;;;;;;-0.23;98.99;99126.25;4899892;29;20262;-54
2023/01/26 09:31:17;;;;;;;33.73;17.17;;;;;;;-0.21;97.49;99121.91;4898466;29;20308;-55
2023/01/26 09:33:44;;;;;;;21.80;11.10;;;;;;;-0.27;96.97;99122.16;4900006;29;20287;-55
2023/01/26 09:36:11;;;;;;;21.57;9.93;;;;;;;-0.24;97.66;99122.03;4896761;29;20275;-56
2023/01/26 09:38:38;;;;;;;19.53;10.37;;;;;;;-0.25;97.83;99128.06;4898050;29;20301;-53
2023/01/26 09:41:12;;;;;;;23.37;10.40;;;;;;;-0.22;98.39;99127.94;4899589;29;20284;-53
2023/01/26 09:43:43;;;;;;;23.43;10.67;;;;;;;-0.19;99.18;99135.50;4900847;29;20286;-53
2023/01/26 09:46:21;;;;;;;23.20;10.57;;;;;;;-0.06;98.21;99134.03;4897515;29;20518;-55
2023/01/26 09:48:57;;;;;;;31.47;12.57;;;;;;;-0.14;98.55;99125.03;4900419;29;20297;-55
2023/01/26 09:51:31;;;;;;;27.57;12.67;;;;;;;-0.13;99.05;99129.25;4897485;29;20250;-55
2023/01/26 09:54:00;;;;;;;28.47;12.93;;;;;;;-0.12;100.00;99121.47;4903746;29;20276;-56
2023/01/26 09:56:31;;;;;;;33.27;13.67;;;;;;;-0.13;99.95;99121.56;4899116;29;20587;-53
2023/01/26 09:59:02;;;;;;;30.80;14.70;;;;;;;-0.24;100.00;99127.16;4894788;29;20228;-53
2023/01/26 10:01:38;;;;;;;30.90;14.17;;;;;;;-0.05;100.00;99122.84;4898067;29;20320;-52
2023/01/26 10:04:14;;;;;;;37.27;15.17;;;;;;;-0.19;100.00;99126.06;4896458;29;20239;-55
2023/01/26 10:06:41;;;;;;;38.13;15.77;;;;;;;-0.12;100.00;99123.22;4902389;29;20690;-54
2023/01/26 10:09:19;;;;;;;30.63;15.10;;;;;;;-0.20;100.00;99121.84;4895205;29;20235;-54
2023/01/26 10:11:50;;;;;;;34.03;14.50;;;;;;;-0.19;100.00;99120.94;4896655;29;20234;-56
2023/01/26 10:14:21;;;;;;;36.13;15.07;;;;;;;-0.20;100.00;99124.41;4911422;29;20720;-56
2023/01/26 10:16:53;;;;;;;33.97;14.27;;;;;;;-0.14;100.00;99117.31;4898964;29;20238;-54
2023/01/26 10:19:34;;;;;;;34.47;14.77;;;;;;;-0.23;100.00;99121.97;4893089;29;20822;-53
2023/01/26 10:22:07;;;;;;;33.17;15.03;;;;;;;-0.20;100.00;99118.44;4896317;29;20775;-56
2023/01/26 10:24:34;;;;;;;36.90;15.63;;;;;;;-0.18;100.00;99117.47;4898738;29;20239;-56
2023/01/26 10:27:00;;;;;;;37.47;15.00;;;;;;;-0.10;100.00;99119.66;4896651;29;20582;-53
2023/01/26 10:29:27;;;;;;;32.80;13.57;;;;;;;-0.17;100.00;99119.13;4896667;29;20312;-55
2023/01/26 10:31:55;;;;;;;33.50;15.17;;;;;;;-0.24;100.00;99109.19;4894496;29;20592;-54
2023/01/26 10:34:24;;;;;;;36.10;15.60;;;;;;;-0.21;100.00;99114.19;4898616;29;20299;-53
2023/01/26 10:36:56;;;;;;;40.80;17.47;;;;;;;-0.23;100.00;99111.72;4894864;29;20234;-54
2023/01/26 10:39:23;;;;;;;38.50;15.93;;;;;;;-0.17;100.00;99108.03;4895487;29;20241;-54
2023/01/26 10:41:57;;;;;;;32.47;13.73;;;;;;;-0.18;100.00;99109.78;4896868;29;20243;-54
2023/01/26 10:44:31;;;;;;;34.50;12.87;;;;;;;-0.28;100.00;99107.69;4897799;29;20239;-53
2023/01/26 10:47:19;;;;;;;30.40;12.80;;;;;;;-0.39;100.00;99105.63;4893679;29;20242;-56
2023/01/26 10:49:45;;;;;;;35.20;14.53;;;;;;;-0.43;100.00;99106.66;4898112;29;20808;-55
2023/01/26 10:52:17;;;;;;;31.23;13.67;;;;;;;-0.43;100.00;99107.47;4894845;29;20655;-55
2023/01/26 10:54:44;;;;;;;34.83;14.53;;;;;;;-0.53;100.00;99101.13;4899451;29;20238;-54
2023/01/26 10:57:17;;;;;;;35.77;15.67;;;;;;;-0.50;100.00;99098.38;4899230;29;20867;-55
2023/01/26 10:59:50;;;;;;;29.73;13.27;;;;;;;-0.47;100.00;99093.97;4900903;29;20233;-55
2023/01/26 11:02:25;;;;;;;29.93;12.83;;;;;;;-0.36;100.00;99097.78;4898530;29;20242;-53
2023/01/26 11:05:15;;;;;;;28.67;12.33;;;;;;;-0.42;100.00;99098.88;4896346;29;20228;-56
2023/01/26 11:07:44;;;;;;;37.87;18.80;;;;;;;-0.49;100.00;99089.78;4898322;29;20228;-54
2023/01/26 11:10:20;;;;;;;33.10;14.30;;;;;;;-0.35;100.00;99089.19;4894503;29;20235;-57
2023/01/26 11:12:47;;;;;;;48.93;27.60;;;;;;;-0.50;100.00;99091.53;4896182;29;20235;-56
2023/01/26 11:15:18;;;;;;;32.20;15.43;;;;;;;-0.39;100.00;99082.53;4893843;29;20282;-54
2023/01/26 11:17:54;;;;;;;30.07;13.80;;;;;;;-0.32;100.00;99082.16;4901484;29;20571;-55
2023/01/26 11:20:43;;;;;;;35.67;15.10;;;;;;;-0.26;100.00;99088.75;4893671;29;20234;-55
2023/01/26 11:23:18;;;;;;;36.43;17.43;;;;;;;-0.38;100.00;99081.63;4892062;29;20298;-54
2023/01/26 11:26:01;;;;;;;28.33;11.87;;;;;;;-0.47;100.00;99080.28;4897739;29;20234;-56
2023/01/26 11:28:42;;;;;;;28.47;12.27;;;;;;;-0.30;100.00;99077.78;4893838;29;20239;-54
2023/01/26 11:31:20;;;;;;;29.17;12.07;;;;;;;-0.32;100.00;99068.53;4891211;29;20985;-52
2023/01/26 11:33:59;;;;;;;27.40;11.53;;;;;;;-0.33;99.99;99074.56;4896282;29;20249;-56
2023/01/26 11:36:33;;;;;;;30.53;13.23;;;;;;;-0.37;99.84;99071.28;4895338;29;20786;-53
2023/01/26 11:39:05;;;;;;;26.40;11.63;;;;;;;-0.26;99.34;99062.25;4897738;29;20262;-56
2023/01/26 11:41:45;;;;;;;30.43;12.30;;;;;;;-0.18;99.32;99068.72;4899286;29;20238;-54
2023/01/26 11:44:31;;;;;;;25.23;11.80;;;;;;;-0.16;99.46;99061.78;4896351;29;20251;-54
2023/01/26 11:47:26;;;;;;;30.20;12.43;;;;;;;-0.06;100.00;99063.91;4893591;29;20294;-57
2023/01/26 11:50:19;;;;;;;32.37;13.73;;;;;;;0.08;99.90;99056.38;4892849;29;20246;-55
2023/01/26 11:52:58;;;;;;;23.10;10.23;;;;;;;0.13;97.26;99054.41;4896876;29;20243;-54
2023/01/26 11:55:37;;;;;;;25.20;11.90;;;;;;;0.12;97.36;99054.50;4894046;29;20230;-53
2023/01/26 11:58:20;;;;;;;24.70;11.57;;;;;;;0.08;96.30;99046.09;4896188;29;20232;-56
2023/01/26 12:00:51;;;;;;;41.27;25.63;;;;;;;0.01;95.12;99044.72;4896133;29;20246;-56
2023/01/26 12:03:26;;;;;;;31.27;13.30;;;;;;;-0.02;94.46;99040.59;4894325;29;20238;-54
2023/01/26 12:05:57;;;;;;;25.00;11.37;;;;;;;-0.03;94.85;99038.91;4896589;29;20241;-56
2023/01/26 12:08:37;;;;;;;23.90;10.50;;;;;;;0.08;92.95;99035.81;4899045;29;20307;-53
2023/01/26 12:13:52;;;;;;;23.50;11.00;;;;;;;-0.07;95.16;99037.41;4898225;29;20238;-55
2023/01/26 12:16:28;;;;;;;27.47;12.03;;;;;;;-0.03;95.74;99038.91;4898816;29;20273;-54
2023/01/26 12:19:03;;;;;;;24.30;10.73;;;;;;;0.00;95.34;99030.25;4897013;29;20231;-53
2023/01/26 12:21:36;;;;;;;26.00;10.43;;;;;;;0.01;93.76;99026.75;4898421;29;20258;-56
2023/01/26 12:24:05;;;;;;;21.57;10.37;;;;;;;-0.13;94.14;99021.47;4894943;29;20250;-53
2023/01/26 12:26:33;;;;;;;23.73;10.70;;;;;;;-0.37;95.17;99025.13;4896440;29;20887;-62
2023/01/26 12:29:08;;;;;;;23.67;10.60;;;;;;;-0.32;96.16;99017.22;4894000;29;20230;-56
2023/01/26 12:31:41;;;;;;;22.70;10.03;;;;;;;-0.30;95.13;99017.97;4897924;29;20240;-57
2023/01/26 12:34:12;;;;;;;24.30;10.30;;;;;;;-0.33;95.94;99023.25;4894701;29;20579;-53
2023/01/26 12:36:46;;;;;;;20.40;9.60;;;;;;;-0.36;94.86;99008.00;4896263;29;20243;-55
2023/01/26 12:39:16;;;;;;;22.97;10.10;;;;;;;-0.49;95.85;99003.44;4895615;29;20230;-57
2023/01/26 12:41:58;;;;;;;22.17;10.40;;;;;;;-0.45;95.58;99006.69;4897150;29;20285;-56
2023/01/26 12:44:36;;;;;;;39.50;18.17;;;;;;;-0.47;96.33;99009.34;4894378;29;20244;-55
2023/01/26 12:47:13;;;;;;;25.37;10.63;;;;;;;-0.59;95.78;99015.03;4895515;29;20552;-56
2023/01/26 12:49:45;;;;;;;24.07;11.40;;;;;;;-0.55;95.31;99008.84;4900933;29;20864;-56
2023/01/26 12:52:18;;;;;;;19.90;10.53;;;;;;;-0.47;96.14;99009.34;4898703;29;20251;-54
2023/01/26 12:54:50;;;;;;;25.87;11.03;;;;;;;-0.50;95.34;99001.78;4901382;29;20796;-57
2023/01/26 12:57:20;;;;;;;23.20;10.23;;;;;;;-0.59;95.85;99004.78;4896846;29;20682;-57
2023/01/26 12:59:48;;;;;;;20.90;10.47;;;;;;;-0.53;95.49;98991.66;4904234;29;20242;-56
2023/01/26 13:02:27;;;;;;;26.57;10.50;;;;;;;-0.38;95.01;98986.72;4897231;29;20237;-53
2023/01/26 13:04:56;;;;;;;20.10;10.17;;;;;;;-0.38;93.70;98986.72;4895397;29;20286;-56
2023/01/26 13:07:34;;;;;;;23.63;10.67;;;;;;;-0.42;93.37;98987.78;4900814;29;20231;-54
2023/01/26 13:10:37;;;;;;;18.83;9.87;;;;;;;-0.42;93.51;98985.22;4900585;29;20305;-54
2023/01/26 13:13:26;;;;;;;21.70;10.80;;;;;;;-0.50;94.42;98988.97;4889361;29;20297;-53
2023/01/26 13:16:31;;;;;;;22.53;10.77;;;;;;;-0.42;94.74;98991.16;4896484;29;20243;-54
2023/01/26 13:18:59;;;;;;;23.70;10.40;;;;;;;-0.71;93.96;98998.47;4897343;29;20244;-54
2023/01/26 13:21:27;;;;;;;21.00;10.73;;;;;;;-0.71;94.66;98997.63;4899184;29;20297;-57
2023/01/26 13:23:55;;;;;;;21.27;9.70;;;;;;;-0.60;93.62;99000.53;4900228;29;20242;-53
2023/01/26 13:26:41;;;;;;;20.83;8.60;;;;;;;-0.59;93.57;99002.22;4901981;29;20694;-55
2023/01/26 13:29:30;;;;;;;19.37;9.23;;;;;;;-0.73;94.53;99002.84;4900344;29;20766;-54
2023/01/26 13:31:59;;;;;;;18.20;9.17;;;;;;;-0.78;93.64;98995.34;4895240;29;20246;-53